sensor_id;sensor_type;location;lat;lon;timestamp;P1;durP1;ratioP1;P2;durP2;ratioP2
4377;SDS011;2203;53.686;9.994;2023-06-19T00:01:11;8.17;;;5.50;;
4377;SDS011;2203;53.686;9.994;2023-06-19T00:03:37;8.43;;;6.00;;
4377;SDS011;2203;53.686;9.994;2023-06-19T00:06:02;8.20;;;5.23;;
4377;SDS011;2203;53.686;9.994;2023-06-19T00:08:27;8.17;;;5.07;;
4377;SDS011;2203;53.686;9.994;2023-06-19T00:10:53;8.77;;;5.43;;
4377;SDS011;2203;53.686;9.994;2023-06-19T00:13:19;7.47;;;6.07;;
4377;SDS011;2203;53.686;9.994;2023-06-19T00:15:45;6.67;;;5.27;;
4377;SDS011;2203;53.686;9.994;2023-06-19T00:18:10;16.13;;;5.07;;
4377;SDS011;2203;53.686;9.994;2023-06-19T00:20:35;8.50;;;5.83;;
4377;SDS011;2203;53.686;9.994;2023-06-19T00:23:01;7.40;;;5.57;;
4377;SDS011;2203;53.686;9.994;2023-06-19T00:25:26;7.37;;;5.53;;
4377;SDS011;2203;53.686;9.994;2023-06-19T00:27:52;10.83;;;5.87;;
4377;SDS011;2203;53.686;9.994;2023-06-19T00:30:17;6.77;;;5.57;;
4377;SDS011;2203;53.686;9.994;2023-06-19T00:32:43;7.97;;;5.87;;
4377;SDS011;2203;53.686;9.994;2023-06-19T00:35:15;6.80;;;6.00;;
4377;SDS011;2203;53.686;9.994;2023-06-19T00:37:41;11.33;;;6.10;;
4377;SDS011;2203;53.686;9.994;2023-06-19T00:40:12;7.90;;;5.33;;
4377;SDS011;2203;53.686;9.994;2023-06-19T00:42:45;9.23;;;5.03;;
4377;SDS011;2203;53.686;9.994;2023-06-19T00:45:10;15.83;;;5.83;;
4377;SDS011;2203;53.686;9.994;2023-06-19T00:47:36;15.43;;;5.40;;
4377;SDS011;2203;53.686;9.994;2023-06-19T00:50:01;7.90;;;5.70;;
4377;SDS011;2203;53.686;9.994;2023-06-19T00:52:26;7.27;;;5.63;;
4377;SDS011;2203;53.686;9.994;2023-06-19T00:54:52;8.50;;;5.80;;
4377;SDS011;2203;53.686;9.994;2023-06-19T00:57:18;11.07;;;6.23;;
4377;SDS011;2203;53.686;9.994;2023-06-19T00:59:44;8.73;;;6.17;;
4377;SDS011;2203;53.686;9.994;2023-06-19T01:02:09;7.00;;;5.90;;
4377;SDS011;2203;53.686;9.994;2023-06-19T01:04:34;8.27;;;5.97;;
4377;SDS011;2203;53.686;9.994;2023-06-19T01:07:02;8.27;;;5.00;;
4377;SDS011;2203;53.686;9.994;2023-06-19T01:09:38;7.27;;;5.47;;
4377;SDS011;2203;53.686;9.994;2023-06-19T01:12:26;8.00;;;5.67;;
4377;SDS011;2203;53.686;9.994;2023-06-19T01:14:57;13.40;;;6.50;;
4377;SDS011;2203;53.686;9.994;2023-06-19T01:17:25;8.33;;;6.30;;
4377;SDS011;2203;53.686;9.994;2023-06-19T01:19:51;11.13;;;5.43;;
4377;SDS011;2203;53.686;9.994;2023-06-19T01:22:27;7.50;;;5.90;;
4377;SDS011;2203;53.686;9.994;2023-06-19T01:24:53;9.57;;;6.30;;
4377;SDS011;2203;53.686;9.994;2023-06-19T01:27:19;12.20;;;6.23;;
4377;SDS011;2203;53.686;9.994;2023-06-19T01:29:44;7.90;;;6.00;;
4377;SDS011;2203;53.686;9.994;2023-06-19T01:32:10;11.70;;;6.00;;
4377;SDS011;2203;53.686;9.994;2023-06-19T01:34:38;9.87;;;6.03;;
4377;SDS011;2203;53.686;9.994;2023-06-19T01:37:04;13.33;;;6.30;;
4377;SDS011;2203;53.686;9.994;2023-06-19T01:39:30;11.03;;;6.30;;
4377;SDS011;2203;53.686;9.994;2023-06-19T01:41:56;13.10;;;6.97;;
4377;SDS011;2203;53.686;9.994;2023-06-19T01:44:23;8.27;;;5.77;;
4377;SDS011;2203;53.686;9.994;2023-06-19T01:46:49;6.63;;;5.90;;
4377;SDS011;2203;53.686;9.994;2023-06-19T01:49:15;10.10;;;5.97;;
4377;SDS011;2203;53.686;9.994;2023-06-19T01:51:41;12.03;;;6.33;;
4377;SDS011;2203;53.686;9.994;2023-06-19T01:54:06;10.77;;;6.70;;
4377;SDS011;2203;53.686;9.994;2023-06-19T01:56:32;7.47;;;5.73;;
4377;SDS011;2203;53.686;9.994;2023-06-19T01:58:57;8.93;;;6.10;;
4377;SDS011;2203;53.686;9.994;2023-06-19T02:01:23;10.13;;;6.07;;
4377;SDS011;2203;53.686;9.994;2023-06-19T02:03:48;8.90;;;6.17;;
4377;SDS011;2203;53.686;9.994;2023-06-19T02:06:14;10.20;;;6.17;;
4377;SDS011;2203;53.686;9.994;2023-06-19T02:08:39;6.80;;;5.43;;
4377;SDS011;2203;53.686;9.994;2023-06-19T02:11:05;7.10;;;6.20;;
4377;SDS011;2203;53.686;9.994;2023-06-19T02:13:30;11.73;;;5.70;;
4377;SDS011;2203;53.686;9.994;2023-06-19T02:15:55;8.90;;;6.43;;
4377;SDS011;2203;53.686;9.994;2023-06-19T02:18:21;8.97;;;6.10;;
4377;SDS011;2203;53.686;9.994;2023-06-19T02:20:47;8.80;;;5.30;;
4377;SDS011;2203;53.686;9.994;2023-06-19T02:23:12;8.23;;;6.10;;
4377;SDS011;2203;53.686;9.994;2023-06-19T02:25:37;9.30;;;6.10;;
4377;SDS011;2203;53.686;9.994;2023-06-19T02:28:03;9.70;;;6.60;;
4377;SDS011;2203;53.686;9.994;2023-06-19T02:30:28;10.50;;;6.00;;
4377;SDS011;2203;53.686;9.994;2023-06-19T02:32:54;8.17;;;6.10;;
4377;SDS011;2203;53.686;9.994;2023-06-19T02:35:19;8.13;;;5.70;;
4377;SDS011;2203;53.686;9.994;2023-06-19T02:37:45;6.90;;;5.60;;
4377;SDS011;2203;53.686;9.994;2023-06-19T02:40:12;7.50;;;5.83;;
4377;SDS011;2203;53.686;9.994;2023-06-19T02:42:38;10.40;;;6.27;;
4377;SDS011;2203;53.686;9.994;2023-06-19T02:45:03;7.67;;;5.80;;
4377;SDS011;2203;53.686;9.994;2023-06-19T02:47:32;8.33;;;6.20;;
4377;SDS011;2203;53.686;9.994;2023-06-19T02:49:58;14.63;;;6.90;;
4377;SDS011;2203;53.686;9.994;2023-06-19T02:52:24;7.83;;;5.70;;
4377;SDS011;2203;53.686;9.994;2023-06-19T02:54:50;6.97;;;5.93;;
4377;SDS011;2203;53.686;9.994;2023-06-19T02:57:15;7.50;;;5.60;;
4377;SDS011;2203;53.686;9.994;2023-06-19T02:59:41;10.07;;;5.77;;
4377;SDS011;2203;53.686;9.994;2023-06-19T03:02:06;9.30;;;6.13;;
4377;SDS011;2203;53.686;9.994;2023-06-19T03:04:31;11.33;;;6.20;;
4377;SDS011;2203;53.686;9.994;2023-06-19T03:06:57;11.47;;;6.33;;
4377;SDS011;2203;53.686;9.994;2023-06-19T03:09:22;7.80;;;5.60;;
4377;SDS011;2203;53.686;9.994;2023-06-19T03:11:48;13.53;;;6.30;;
4377;SDS011;2203;53.686;9.994;2023-06-19T03:14:13;12.33;;;6.60;;
4377;SDS011;2203;53.686;9.994;2023-06-19T03:16:38;10.33;;;6.70;;
4377;SDS011;2203;53.686;9.994;2023-06-19T03:19:04;10.53;;;6.00;;
4377;SDS011;2203;53.686;9.994;2023-06-19T03:21:29;7.40;;;5.70;;
4377;SDS011;2203;53.686;9.994;2023-06-19T03:23:54;12.67;;;6.30;;
4377;SDS011;2203;53.686;9.994;2023-06-19T03:26:20;10.37;;;6.80;;
4377;SDS011;2203;53.686;9.994;2023-06-19T03:28:46;9.83;;;6.33;;
4377;SDS011;2203;53.686;9.994;2023-06-19T03:31:12;11.50;;;6.60;;
4377;SDS011;2203;53.686;9.994;2023-06-19T03:33:38;8.27;;;5.93;;
4377;SDS011;2203;53.686;9.994;2023-06-19T03:36:04;11.37;;;7.13;;
4377;SDS011;2203;53.686;9.994;2023-06-19T03:38:30;9.40;;;6.10;;
4377;SDS011;2203;53.686;9.994;2023-06-19T03:40:55;13.90;;;5.97;;
4377;SDS011;2203;53.686;9.994;2023-06-19T03:43:21;15.43;;;6.60;;
4377;SDS011;2203;53.686;9.994;2023-06-19T03:45:46;9.60;;;6.67;;
4377;SDS011;2203;53.686;9.994;2023-06-19T03:48:12;6.70;;;5.87;;
4377;SDS011;2203;53.686;9.994;2023-06-19T03:50:37;8.60;;;6.03;;
4377;SDS011;2203;53.686;9.994;2023-06-19T03:53:02;7.97;;;5.80;;
4377;SDS011;2203;53.686;9.994;2023-06-19T03:55:28;9.27;;;6.87;;
4377;SDS011;2203;53.686;9.994;2023-06-19T03:57:53;11.00;;;6.40;;
4377;SDS011;2203;53.686;9.994;2023-06-19T04:00:19;6.90;;;5.87;;
4377;SDS011;2203;53.686;9.994;2023-06-19T04:02:44;8.90;;;5.80;;
4377;SDS011;2203;53.686;9.994;2023-06-19T04:05:11;13.23;;;6.70;;
4377;SDS011;2203;53.686;9.994;2023-06-19T04:07:37;11.03;;;6.60;;
4377;SDS011;2203;53.686;9.994;2023-06-19T04:10:02;9.00;;;6.83;;
4377;SDS011;2203;53.686;9.994;2023-06-19T04:12:28;10.40;;;6.80;;
4377;SDS011;2203;53.686;9.994;2023-06-19T04:14:53;8.17;;;6.77;;
4377;SDS011;2203;53.686;9.994;2023-06-19T04:17:18;12.27;;;7.23;;
4377;SDS011;2203;53.686;9.994;2023-06-19T04:19:44;11.30;;;7.00;;
4377;SDS011;2203;53.686;9.994;2023-06-19T04:22:09;15.10;;;7.40;;
4377;SDS011;2203;53.686;9.994;2023-06-19T04:24:35;10.30;;;6.33;;
4377;SDS011;2203;53.686;9.994;2023-06-19T04:27:01;9.87;;;6.47;;
4377;SDS011;2203;53.686;9.994;2023-06-19T04:29:26;9.87;;;6.87;;
4377;SDS011;2203;53.686;9.994;2023-06-19T04:31:56;12.17;;;6.53;;
4377;SDS011;2203;53.686;9.994;2023-06-19T04:34:23;9.33;;;6.73;;
4377;SDS011;2203;53.686;9.994;2023-06-19T04:36:48;9.67;;;6.70;;
4377;SDS011;2203;53.686;9.994;2023-06-19T04:39:13;9.07;;;6.60;;
4377;SDS011;2203;53.686;9.994;2023-06-19T04:41:40;8.40;;;6.90;;
4377;SDS011;2203;53.686;9.994;2023-06-19T04:44:08;11.03;;;7.53;;
4377;SDS011;2203;53.686;9.994;2023-06-19T04:46:34;11.40;;;7.43;;
4377;SDS011;2203;53.686;9.994;2023-06-19T04:49:00;11.60;;;7.43;;
4377;SDS011;2203;53.686;9.994;2023-06-19T04:51:25;11.67;;;6.97;;
4377;SDS011;2203;53.686;9.994;2023-06-19T04:53:51;14.80;;;6.67;;
4377;SDS011;2203;53.686;9.994;2023-06-19T04:56:17;8.20;;;6.23;;
4377;SDS011;2203;53.686;9.994;2023-06-19T04:58:42;8.57;;;6.70;;
4377;SDS011;2203;53.686;9.994;2023-06-19T05:01:14;10.87;;;7.40;;
4377;SDS011;2203;53.686;9.994;2023-06-19T05:03:40;12.23;;;8.90;;
4377;SDS011;2203;53.686;9.994;2023-06-19T05:06:07;10.90;;;6.20;;
4377;SDS011;2203;53.686;9.994;2023-06-19T05:08:33;9.77;;;6.93;;
4377;SDS011;2203;53.686;9.994;2023-06-19T05:10:59;11.57;;;7.53;;
4377;SDS011;2203;53.686;9.994;2023-06-19T05:13:24;11.40;;;8.20;;
4377;SDS011;2203;53.686;9.994;2023-06-19T05:15:49;14.27;;;10.27;;
4377;SDS011;2203;53.686;9.994;2023-06-19T05:18:18;10.43;;;7.40;;
4377;SDS011;2203;53.686;9.994;2023-06-19T05:20:43;13.93;;;8.93;;
4377;SDS011;2203;53.686;9.994;2023-06-19T05:23:09;14.80;;;7.77;;
4377;SDS011;2203;53.686;9.994;2023-06-19T05:25:34;12.30;;;7.87;;
4377;SDS011;2203;53.686;9.994;2023-06-19T05:28:00;13.70;;;7.50;;
4377;SDS011;2203;53.686;9.994;2023-06-19T05:30:25;10.50;;;7.20;;
4377;SDS011;2203;53.686;9.994;2023-06-19T05:32:50;9.93;;;7.20;;
4377;SDS011;2203;53.686;9.994;2023-06-19T05:35:16;14.43;;;7.70;;
4377;SDS011;2203;53.686;9.994;2023-06-19T05:37:41;16.90;;;8.10;;
4377;SDS011;2203;53.686;9.994;2023-06-19T05:40:08;12.27;;;8.60;;
4377;SDS011;2203;53.686;9.994;2023-06-19T05:42:35;13.30;;;7.00;;
4377;SDS011;2203;53.686;9.994;2023-06-19T05:45:01;11.10;;;7.40;;
4377;SDS011;2203;53.686;9.994;2023-06-19T05:47:27;12.23;;;7.97;;
4377;SDS011;2203;53.686;9.994;2023-06-19T05:49:54;16.13;;;8.50;;
4377;SDS011;2203;53.686;9.994;2023-06-19T05:52:19;12.33;;;8.53;;
4377;SDS011;2203;53.686;9.994;2023-06-19T05:54:46;11.03;;;7.33;;
4377;SDS011;2203;53.686;9.994;2023-06-19T05:57:11;23.00;;;7.80;;
4377;SDS011;2203;53.686;9.994;2023-06-19T05:59:36;11.87;;;8.50;;
4377;SDS011;2203;53.686;9.994;2023-06-19T06:02:02;9.83;;;7.73;;
4377;SDS011;2203;53.686;9.994;2023-06-19T06:04:28;12.07;;;8.10;;
4377;SDS011;2203;53.686;9.994;2023-06-19T06:06:55;21.10;;;8.30;;
4377;SDS011;2203;53.686;9.994;2023-06-19T06:09:21;10.03;;;8.10;;
4377;SDS011;2203;53.686;9.994;2023-06-19T06:11:46;16.70;;;8.00;;
4377;SDS011;2203;53.686;9.994;2023-06-19T06:14:12;10.87;;;7.60;;
4377;SDS011;2203;53.686;9.994;2023-06-19T06:16:37;16.60;;;7.87;;
4377;SDS011;2203;53.686;9.994;2023-06-19T06:19:02;11.10;;;8.20;;
4377;SDS011;2203;53.686;9.994;2023-06-19T06:21:31;13.50;;;8.37;;
4377;SDS011;2203;53.686;9.994;2023-06-19T06:23:57;9.60;;;7.70;;
4377;SDS011;2203;53.686;9.994;2023-06-19T06:26:22;12.90;;;8.30;;
4377;SDS011;2203;53.686;9.994;2023-06-19T06:28:47;15.90;;;9.50;;
4377;SDS011;2203;53.686;9.994;2023-06-19T06:31:13;11.30;;;8.23;;
4377;SDS011;2203;53.686;9.994;2023-06-19T06:33:38;15.90;;;8.50;;
4377;SDS011;2203;53.686;9.994;2023-06-19T06:36:04;14.07;;;8.40;;
4377;SDS011;2203;53.686;9.994;2023-06-19T06:38:29;10.37;;;8.73;;
4377;SDS011;2203;53.686;9.994;2023-06-19T06:40:55;13.10;;;9.13;;
4377;SDS011;2203;53.686;9.994;2023-06-19T06:43:20;11.83;;;9.33;;
4377;SDS011;2203;53.686;9.994;2023-06-19T06:45:46;12.13;;;9.13;;
4377;SDS011;2203;53.686;9.994;2023-06-19T06:48:11;12.90;;;9.67;;
4377;SDS011;2203;53.686;9.994;2023-06-19T06:50:36;18.13;;;9.77;;
4377;SDS011;2203;53.686;9.994;2023-06-19T06:53:02;14.70;;;8.43;;
4377;SDS011;2203;53.686;9.994;2023-06-19T06:55:28;10.63;;;8.77;;
4377;SDS011;2203;53.686;9.994;2023-06-19T06:57:53;11.37;;;8.63;;
4377;SDS011;2203;53.686;9.994;2023-06-19T07:00:18;14.80;;;9.00;;
4377;SDS011;2203;53.686;9.994;2023-06-19T07:02:44;11.80;;;9.10;;
4377;SDS011;2203;53.686;9.994;2023-06-19T07:05:12;12.30;;;9.07;;
4377;SDS011;2203;53.686;9.994;2023-06-19T07:07:38;15.57;;;9.70;;
4377;SDS011;2203;53.686;9.994;2023-06-19T07:10:03;15.77;;;9.70;;
4377;SDS011;2203;53.686;9.994;2023-06-19T07:12:29;12.80;;;10.00;;
4377;SDS011;2203;53.686;9.994;2023-06-19T07:14:55;13.17;;;9.60;;
4377;SDS011;2203;53.686;9.994;2023-06-19T07:17:20;15.27;;;10.13;;
4377;SDS011;2203;53.686;9.994;2023-06-19T07:19:46;22.77;;;9.70;;
4377;SDS011;2203;53.686;9.994;2023-06-19T07:22:11;22.83;;;10.50;;
4377;SDS011;2203;53.686;9.994;2023-06-19T07:24:37;13.70;;;9.40;;
4377;SDS011;2203;53.686;9.994;2023-06-19T07:27:02;15.40;;;9.90;;
4377;SDS011;2203;53.686;9.994;2023-06-19T07:29:28;13.67;;;9.90;;
4377;SDS011;2203;53.686;9.994;2023-06-19T07:31:54;16.37;;;10.97;;
4377;SDS011;2203;53.686;9.994;2023-06-19T07:34:20;13.37;;;9.43;;
4377;SDS011;2203;53.686;9.994;2023-06-19T07:36:46;15.47;;;9.43;;
4377;SDS011;2203;53.686;9.994;2023-06-19T07:39:11;12.13;;;9.30;;
4377;SDS011;2203;53.686;9.994;2023-06-19T07:41:37;11.67;;;8.63;;
4377;SDS011;2203;53.686;9.994;2023-06-19T07:44:03;15.97;;;10.10;;
4377;SDS011;2203;53.686;9.994;2023-06-19T07:46:28;13.27;;;9.77;;
4377;SDS011;2203;53.686;9.994;2023-06-19T07:48:54;14.20;;;9.40;;
4377;SDS011;2203;53.686;9.994;2023-06-19T07:51:20;16.20;;;10.30;;
4377;SDS011;2203;53.686;9.994;2023-06-19T07:53:45;17.93;;;10.20;;
4377;SDS011;2203;53.686;9.994;2023-06-19T07:56:10;17.30;;;11.17;;
4377;SDS011;2203;53.686;9.994;2023-06-19T07:58:36;13.73;;;10.83;;
4377;SDS011;2203;53.686;9.994;2023-06-19T08:01:01;15.23;;;10.03;;
4377;SDS011;2203;53.686;9.994;2023-06-19T08:03:27;12.93;;;9.90;;
4377;SDS011;2203;53.686;9.994;2023-06-19T08:05:52;19.60;;;9.80;;
4377;SDS011;2203;53.686;9.994;2023-06-19T08:08:17;15.67;;;10.00;;
4377;SDS011;2203;53.686;9.994;2023-06-19T08:10:43;18.57;;;10.83;;
4377;SDS011;2203;53.686;9.994;2023-06-19T08:13:08;16.63;;;10.67;;
4377;SDS011;2203;53.686;9.994;2023-06-19T08:15:36;13.40;;;9.57;;
4377;SDS011;2203;53.686;9.994;2023-06-19T08:18:01;16.43;;;10.33;;
4377;SDS011;2203;53.686;9.994;2023-06-19T08:20:27;17.80;;;10.00;;
4377;SDS011;2203;53.686;9.994;2023-06-19T08:22:53;17.23;;;10.30;;
4377;SDS011;2203;53.686;9.994;2023-06-19T08:25:18;16.57;;;10.60;;
4377;SDS011;2203;53.686;9.994;2023-06-19T08:27:44;13.50;;;10.10;;
4377;SDS011;2203;53.686;9.994;2023-06-19T08:30:10;14.60;;;10.30;;
4377;SDS011;2203;53.686;9.994;2023-06-19T08:32:36;13.90;;;10.60;;
4377;SDS011;2203;53.686;9.994;2023-06-19T08:35:01;15.47;;;9.50;;
4377;SDS011;2203;53.686;9.994;2023-06-19T08:37:28;14.67;;;10.30;;
4377;SDS011;2203;53.686;9.994;2023-06-19T08:39:53;14.97;;;10.70;;
4377;SDS011;2203;53.686;9.994;2023-06-19T08:42:20;14.70;;;9.90;;
4377;SDS011;2203;53.686;9.994;2023-06-19T08:44:45;12.43;;;9.90;;
4377;SDS011;2203;53.686;9.994;2023-06-19T08:47:11;14.03;;;10.90;;
4377;SDS011;2203;53.686;9.994;2023-06-19T08:49:36;23.50;;;10.80;;
4377;SDS011;2203;53.686;9.994;2023-06-19T08:52:02;16.50;;;10.97;;
4377;SDS011;2203;53.686;9.994;2023-06-19T08:54:28;13.37;;;10.50;;
4377;SDS011;2203;53.686;9.994;2023-06-19T08:56:54;15.60;;;10.87;;
4377;SDS011;2203;53.686;9.994;2023-06-19T08:59:20;11.43;;;9.40;;
4377;SDS011;2203;53.686;9.994;2023-06-19T09:01:46;14.77;;;10.37;;
4377;SDS011;2203;53.686;9.994;2023-06-19T09:04:23;19.37;;;10.50;;
4377;SDS011;2203;53.686;9.994;2023-06-19T09:06:55;18.17;;;11.10;;
4377;SDS011;2203;53.686;9.994;2023-06-19T09:09:22;20.00;;;11.10;;
4377;SDS011;2203;53.686;9.994;2023-06-19T09:12:02;11.13;;;9.30;;
4377;SDS011;2203;53.686;9.994;2023-06-19T09:14:32;16.83;;;11.03;;
4377;SDS011;2203;53.686;9.994;2023-06-19T09:17:02;16.23;;;10.40;;
4377;SDS011;2203;53.686;9.994;2023-06-19T09:19:28;13.60;;;9.90;;
4377;SDS011;2203;53.686;9.994;2023-06-19T09:21:58;16.20;;;9.57;;
4377;SDS011;2203;53.686;9.994;2023-06-19T09:24:32;25.53;;;10.47;;
4377;SDS011;2203;53.686;9.994;2023-06-19T09:27:05;16.43;;;10.33;;
4377;SDS011;2203;53.686;9.994;2023-06-19T09:29:43;17.70;;;9.90;;
4377;SDS011;2203;53.686;9.994;2023-06-19T09:32:23;19.97;;;10.53;;
4377;SDS011;2203;53.686;9.994;2023-06-19T09:34:49;19.27;;;10.53;;
4377;SDS011;2203;53.686;9.994;2023-06-19T09:37:19;16.00;;;10.07;;
4377;SDS011;2203;53.686;9.994;2023-06-19T09:39:47;17.90;;;10.13;;
4377;SDS011;2203;53.686;9.994;2023-06-19T09:42:27;25.00;;;9.97;;
4377;SDS011;2203;53.686;9.994;2023-06-19T09:44:58;13.07;;;10.37;;
4377;SDS011;2203;53.686;9.994;2023-06-19T09:47:36;18.27;;;9.90;;
4377;SDS011;2203;53.686;9.994;2023-06-19T09:50:03;21.93;;;10.70;;
4377;SDS011;2203;53.686;9.994;2023-06-19T09:52:29;17.70;;;10.20;;
4377;SDS011;2203;53.686;9.994;2023-06-19T09:54:55;12.30;;;9.50;;
4377;SDS011;2203;53.686;9.994;2023-06-19T09:57:22;14.80;;;9.13;;
4377;SDS011;2203;53.686;9.994;2023-06-19T09:59:50;20.63;;;9.30;;
4377;SDS011;2203;53.686;9.994;2023-06-19T10:02:18;16.90;;;10.67;;
4377;SDS011;2203;53.686;9.994;2023-06-19T10:04:46;14.47;;;10.03;;
4377;SDS011;2203;53.686;9.994;2023-06-19T10:07:15;15.20;;;9.43;;
4377;SDS011;2203;53.686;9.994;2023-06-19T10:10:00;17.43;;;9.40;;
4377;SDS011;2203;53.686;9.994;2023-06-19T10:12:43;14.00;;;8.37;;
4377;SDS011;2203;53.686;9.994;2023-06-19T10:15:10;12.67;;;8.70;;
4377;SDS011;2203;53.686;9.994;2023-06-19T10:17:36;19.40;;;9.90;;
4377;SDS011;2203;53.686;9.994;2023-06-19T10:20:02;11.57;;;8.50;;
4377;SDS011;2203;53.686;9.994;2023-06-19T10:22:31;13.80;;;8.43;;
4377;SDS011;2203;53.686;9.994;2023-06-19T10:24:57;12.90;;;8.60;;
4377;SDS011;2203;53.686;9.994;2023-06-19T10:27:23;12.03;;;8.93;;
4377;SDS011;2203;53.686;9.994;2023-06-19T10:29:52;13.10;;;9.47;;
4377;SDS011;2203;53.686;9.994;2023-06-19T10:32:19;12.17;;;8.77;;
4377;SDS011;2203;53.686;9.994;2023-06-19T10:34:45;13.80;;;10.03;;
4377;SDS011;2203;53.686;9.994;2023-06-19T10:37:12;13.97;;;9.80;;
4377;SDS011;2203;53.686;9.994;2023-06-19T10:39:38;19.90;;;9.50;;
4377;SDS011;2203;53.686;9.994;2023-06-19T10:42:07;12.57;;;10.00;;
4377;SDS011;2203;53.686;9.994;2023-06-19T10:44:33;15.07;;;10.40;;
4377;SDS011;2203;53.686;9.994;2023-06-19T10:46:59;14.93;;;10.30;;
4377;SDS011;2203;53.686;9.994;2023-06-19T10:49:25;24.43;;;10.60;;
4377;SDS011;2203;53.686;9.994;2023-06-19T10:51:50;22.27;;;10.53;;
4377;SDS011;2203;53.686;9.994;2023-06-19T10:54:16;23.50;;;11.90;;
4377;SDS011;2203;53.686;9.994;2023-06-19T10:56:41;14.10;;;10.23;;
4377;SDS011;2203;53.686;9.994;2023-06-19T10:59:09;18.13;;;11.87;;
4377;SDS011;2203;53.686;9.994;2023-06-19T11:01:37;16.70;;;10.93;;
4377;SDS011;2203;53.686;9.994;2023-06-19T11:04:04;16.70;;;10.75;;
4377;SDS011;2203;53.686;9.994;2023-06-19T11:06:31;27.43;;;12.33;;
4377;SDS011;2203;53.686;9.994;2023-06-19T11:08:57;19.77;;;12.23;;
4377;SDS011;2203;53.686;9.994;2023-06-19T11:11:22;19.03;;;12.50;;
4377;SDS011;2203;53.686;9.994;2023-06-19T11:13:48;15.87;;;10.73;;
4377;SDS011;2203;53.686;9.994;2023-06-19T11:16:16;17.80;;;10.70;;
4377;SDS011;2203;53.686;9.994;2023-06-19T11:18:41;14.30;;;10.70;;
4377;SDS011;2203;53.686;9.994;2023-06-19T11:21:07;21.00;;;10.67;;
4377;SDS011;2203;53.686;9.994;2023-06-19T11:23:32;15.00;;;11.40;;
4377;SDS011;2203;53.686;9.994;2023-06-19T11:26:04;17.40;;;11.50;;
4377;SDS011;2203;53.686;9.994;2023-06-19T11:28:30;17.63;;;10.10;;
4377;SDS011;2203;53.686;9.994;2023-06-19T11:31:02;22.50;;;10.40;;
4377;SDS011;2203;53.686;9.994;2023-06-19T11:33:28;26.00;;;11.23;;
4377;SDS011;2203;53.686;9.994;2023-06-19T11:35:58;14.43;;;10.83;;
4377;SDS011;2203;53.686;9.994;2023-06-19T11:38:26;18.00;;;10.80;;
4377;SDS011;2203;53.686;9.994;2023-06-19T11:40:52;13.30;;;10.67;;
4377;SDS011;2203;53.686;9.994;2023-06-19T11:43:29;11.57;;;9.40;;
4377;SDS011;2203;53.686;9.994;2023-06-19T11:46:01;15.67;;;11.37;;
4377;SDS011;2203;53.686;9.994;2023-06-19T11:48:30;15.40;;;10.60;;
4377;SDS011;2203;53.686;9.994;2023-06-19T11:50:55;21.20;;;9.67;;
4377;SDS011;2203;53.686;9.994;2023-06-19T11:53:21;16.87;;;9.80;;
4377;SDS011;2203;53.686;9.994;2023-06-19T11:55:47;14.60;;;10.27;;
4377;SDS011;2203;53.686;9.994;2023-06-19T11:58:13;13.90;;;7.90;;
4377;SDS011;2203;53.686;9.994;2023-06-19T12:00:40;10.37;;;8.07;;
4377;SDS011;2203;53.686;9.994;2023-06-19T12:03:06;16.70;;;7.20;;
4377;SDS011;2203;53.686;9.994;2023-06-19T12:05:32;10.10;;;8.50;;
4377;SDS011;2203;53.686;9.994;2023-06-19T12:07:57;13.27;;;7.50;;
4377;SDS011;2203;53.686;9.994;2023-06-19T12:10:23;13.37;;;8.20;;
4377;SDS011;2203;53.686;9.994;2023-06-19T12:12:48;9.17;;;6.63;;
4377;SDS011;2203;53.686;9.994;2023-06-19T12:15:13;11.40;;;7.17;;
4377;SDS011;2203;53.686;9.994;2023-06-19T12:17:39;9.03;;;7.00;;
4377;SDS011;2203;53.686;9.994;2023-06-19T12:20:05;17.57;;;7.90;;
4377;SDS011;2203;53.686;9.994;2023-06-19T12:22:32;14.63;;;8.02;;
4377;SDS011;2203;53.686;9.994;2023-06-19T12:24:58;12.85;;;7.75;;
4377;SDS011;2203;53.686;9.994;2023-06-19T12:27:24;11.07;;;7.80;;
4377;SDS011;2203;53.686;9.994;2023-06-19T12:29:49;46.00;;;8.70;;
4377;SDS011;2203;53.686;9.994;2023-06-19T12:32:15;19.50;;;7.20;;
4377;SDS011;2203;53.686;9.994;2023-06-19T12:34:40;14.97;;;6.80;;
4377;SDS011;2203;53.686;9.994;2023-06-19T12:37:11;15.75;;;8.05;;
4377;SDS011;2203;53.686;9.994;2023-06-19T12:39:40;12.73;;;7.13;;
4377;SDS011;2203;53.686;9.994;2023-06-19T12:42:06;16.13;;;7.13;;
4377;SDS011;2203;53.686;9.994;2023-06-19T12:44:32;14.10;;;7.47;;
4377;SDS011;2203;53.686;9.994;2023-06-19T12:46:57;13.10;;;7.63;;
4377;SDS011;2203;53.686;9.994;2023-06-19T12:49:25;9.90;;;6.40;;
4377;SDS011;2203;53.686;9.994;2023-06-19T12:51:50;11.50;;;7.33;;
4377;SDS011;2203;53.686;9.994;2023-06-19T12:54:17;17.17;;;7.00;;
4377;SDS011;2203;53.686;9.994;2023-06-19T12:56:43;17.00;;;6.60;;
4377;SDS011;2203;53.686;9.994;2023-06-19T12:59:09;8.70;;;6.70;;
4377;SDS011;2203;53.686;9.994;2023-06-19T13:01:35;14.47;;;6.77;;
4377;SDS011;2203;53.686;9.994;2023-06-19T13:04:00;17.93;;;6.73;;
4377;SDS011;2203;53.686;9.994;2023-06-19T13:06:25;14.30;;;5.70;;
4377;SDS011;2203;53.686;9.994;2023-06-19T13:08:51;10.30;;;6.57;;
4377;SDS011;2203;53.686;9.994;2023-06-19T13:11:16;10.20;;;6.77;;
4377;SDS011;2203;53.686;9.994;2023-06-19T13:13:42;10.13;;;7.30;;
4377;SDS011;2203;53.686;9.994;2023-06-19T13:16:07;12.33;;;6.57;;
4377;SDS011;2203;53.686;9.994;2023-06-19T13:18:34;9.40;;;7.33;;
4377;SDS011;2203;53.686;9.994;2023-06-19T13:21:00;10.63;;;6.20;;
4377;SDS011;2203;53.686;9.994;2023-06-19T13:23:25;21.30;;;7.10;;
4377;SDS011;2203;53.686;9.994;2023-06-19T13:25:50;21.63;;;7.00;;
4377;SDS011;2203;53.686;9.994;2023-06-19T13:28:16;10.50;;;7.10;;
4377;SDS011;2203;53.686;9.994;2023-06-19T13:30:41;11.80;;;7.33;;
4377;SDS011;2203;53.686;9.994;2023-06-19T13:33:07;12.90;;;7.27;;
4377;SDS011;2203;53.686;9.994;2023-06-19T13:35:32;7.40;;;6.60;;
4377;SDS011;2203;53.686;9.994;2023-06-19T13:37:58;17.40;;;7.03;;
4377;SDS011;2203;53.686;9.994;2023-06-19T13:40:24;8.30;;;5.60;;
4377;SDS011;2203;53.686;9.994;2023-06-19T13:42:50;8.50;;;5.00;;
4377;SDS011;2203;53.686;9.994;2023-06-19T13:45:15;9.90;;;5.73;;
4377;SDS011;2203;53.686;9.994;2023-06-19T13:47:41;16.73;;;6.03;;
4377;SDS011;2203;53.686;9.994;2023-06-19T13:50:06;6.83;;;4.80;;
4377;SDS011;2203;53.686;9.994;2023-06-19T13:52:32;9.07;;;5.47;;
4377;SDS011;2203;53.686;9.994;2023-06-19T13:54:57;7.50;;;5.90;;
4377;SDS011;2203;53.686;9.994;2023-06-19T13:57:23;13.30;;;5.90;;
4377;SDS011;2203;53.686;9.994;2023-06-19T13:59:48;14.27;;;4.63;;
4377;SDS011;2203;53.686;9.994;2023-06-19T14:02:14;16.13;;;5.83;;
4377;SDS011;2203;53.686;9.994;2023-06-19T14:04:39;9.80;;;5.20;;
4377;SDS011;2203;53.686;9.994;2023-06-19T14:07:05;5.90;;;5.30;;
4377;SDS011;2203;53.686;9.994;2023-06-19T14:09:30;6.80;;;4.90;;
4377;SDS011;2203;53.686;9.994;2023-06-19T14:11:56;7.67;;;5.57;;
4377;SDS011;2203;53.686;9.994;2023-06-19T14:14:22;7.10;;;4.80;;
4377;SDS011;2203;53.686;9.994;2023-06-19T14:16:47;6.03;;;5.00;;
4377;SDS011;2203;53.686;9.994;2023-06-19T14:19:12;12.00;;;4.87;;
4377;SDS011;2203;53.686;9.994;2023-06-19T14:21:39;11.53;;;5.30;;
4377;SDS011;2203;53.686;9.994;2023-06-19T14:24:04;10.27;;;5.40;;
4377;SDS011;2203;53.686;9.994;2023-06-19T14:26:29;13.53;;;5.23;;
4377;SDS011;2203;53.686;9.994;2023-06-19T14:28:55;6.87;;;5.20;;
4377;SDS011;2203;53.686;9.994;2023-06-19T14:31:22;7.37;;;5.00;;
4377;SDS011;2203;53.686;9.994;2023-06-19T14:33:48;7.70;;;5.00;;
4377;SDS011;2203;53.686;9.994;2023-06-19T14:36:13;9.07;;;4.97;;
4377;SDS011;2203;53.686;9.994;2023-06-19T14:38:39;6.83;;;5.00;;
4377;SDS011;2203;53.686;9.994;2023-06-19T14:41:04;7.23;;;5.20;;
4377;SDS011;2203;53.686;9.994;2023-06-19T14:43:30;9.73;;;4.50;;
4377;SDS011;2203;53.686;9.994;2023-06-19T14:45:57;8.57;;;4.93;;
4377;SDS011;2203;53.686;9.994;2023-06-19T14:48:22;7.37;;;5.27;;
4377;SDS011;2203;53.686;9.994;2023-06-19T14:50:48;8.83;;;5.00;;
4377;SDS011;2203;53.686;9.994;2023-06-19T14:53:13;6.20;;;4.80;;
4377;SDS011;2203;53.686;9.994;2023-06-19T14:55:39;5.50;;;4.90;;
4377;SDS011;2203;53.686;9.994;2023-06-19T14:58:08;6.20;;;5.47;;